Time;durP1;ratioP1;P1;durP2;ratioP2;P2;SDS_P1;SDS_P2;PMS_P1;PMS_P2;Temp;Humidity;BMP_temperature;BMP_pressure;BME280_temperature;BME280_humidity;BME280_pressure;Samples;Min_cycle;Max_cycle;Signal;HPM_P1;HPM_P2
2022/08/14 00:04:11;;;;;;;;;;;;;;;23.92;40.86;95432.84;10345581;28;1919;-55
2022/08/14 00:09:12;;;;;;;;;;;;;;;23.93;40.79;95428.31;10342968;28;1942;-55
2022/08/14 00:14:12;;;;;;;;;;;;;;;23.92;40.74;95426.75;10342641;28;1852;-55
2022/08/14 00:19:13;;;;;;;;;;;;;;;23.91;40.75;95420.66;10339063;28;1880;-53
2022/08/14 00:24:13;;;;;;;;;;;;;;;23.92;41.02;95427.53;10328178;28;1972;-55
2022/08/14 00:29:13;;;;;;;;;;;;;;;23.93;40.76;95417.72;10339781;28;1812;-55
2022/08/14 00:34:14;;;;;;;;;;;;;;;23.92;40.98;95405.56;10338237;28;1843;-54
2022/08/14 00:39:15;;;;;;;;;;;;;;;23.92;40.77;95400.28;10333262;28;1977;-55
2022/08/14 00:44:15;;;;;;;;;;;;;;;23.92;40.66;95405.56;10338842;28;1950;-54
2022/08/14 00:49:16;;;;;;;;;;;;;;;23.91;40.55;95394.19;10338686;28;1942;-50
2022/08/14 00:54:17;;;;;;;;;;;;;;;23.91;40.64;95396.06;10340449;28;2006;-54
2022/08/14 00:59:17;;;;;;;;;;;;;;;23.91;40.70;95394.19;10336948;28;1947;-53
2022/08/14 01:04:17;;;;;;;;;;;;;;;23.91;40.74;95393.41;10336727;28;1963;-54
2022/08/14 01:09:21;;;;;;;;;;;;;;;23.90;40.79;95382.06;10332877;28;1947;-54
2022/08/14 01:14:22;;;;;;;;;;;;;;;23.91;40.57;95377.53;10333658;28;1931;-56
2022/08/14 01:25:15;;;;;;;;;;;;;;;23.90;40.57;95371.47;10332226;28;1906;-55
2022/08/14 01:30:22;;;;;;;;;;;;;;;23.89;40.57;95367.25;10337356;28;1989;-54
2022/08/14 01:35:45;;;;;;;;;;;;;;;23.89;40.65;95361.97;10331364;28;1997;-54
2022/08/14 01:41:10;;;;;;;;;;;;;;;23.90;40.83;95349.50;10329080;28;1927;-54
2022/08/14 01:46:16;;;;;;;;;;;;;;;23.88;40.62;95336.59;10335012;28;2011;-55
2022/08/14 01:51:30;;;;;;;;;;;;;;;23.90;40.62;95326.47;10334851;28;2023;-55
2022/08/14 01:56:35;;;;;;;;;;;;;;;23.88;40.57;95312.75;10343928;28;1979;-52
2022/08/14 02:01:36;;;;;;;;;;;;;;;23.89;40.59;95300.28;10345664;28;2101;-53
2022/08/14 02:06:36;;;;;;;;;;;;;;;23.89;40.58;95300.28;10336940;28;2004;-54
2022/08/14 02:11:37;;;;;;;;;;;;;;;23.89;40.86;95295.78;10337461;28;2120;-52
2022/08/14 02:16:39;;;;;;;;;;;;;;;23.89;40.77;95293.13;10343095;28;2009;-53
2022/08/14 02:21:40;;;;;;;;;;;;;;;23.89;40.92;95298.44;10340058;28;1932;-53
2022/08/14 02:26:47;;;;;;;;;;;;;;;23.89;40.82;95292.34;10343000;28;1987;-54
2022/08/14 02:31:48;;;;;;;;;;;;;;;23.89;40.84;95293.13;10344806;28;1955;-52
2022/08/14 02:36:50;;;;;;;;;;;;;;;23.88;40.51;95296.09;10345928;28;1943;-53
2022/08/14 02:41:51;;;;;;;;;;;;;;;23.89;40.70;95289.69;10344134;28;1979;-55
2022/08/14 02:46:52;;;;;;;;;;;;;;;23.88;40.59;95285.50;10348426;28;1970;-50
2022/08/14 02:51:52;;;;;;;;;;;;;;;23.88;40.58;95290.78;10339005;28;2030;-55
2022/08/14 02:56:53;;;;;;;;;;;;;;;23.88;40.66;95282.84;10348260;28;1871;-55
2022/08/14 03:01:54;;;;;;;;;;;;;;;23.87;40.73;95276.78;10344462;28;1978;-54
2022/08/14 03:06:55;;;;;;;;;;;;;;;23.86;40.52;95259.34;10341068;28;1900;-52
2022/08/14 03:11:57;;;;;;;;;;;;;;;23.88;40.45;95264.31;10339804;28;2141;-54
2022/08/14 03:16:57;;;;;;;;;;;;;;;23.87;40.83;95268.84;10342207;28;2002;-56
2022/08/14 03:21:58;;;;;;;;;;;;;;;23.87;40.42;95254.81;10336201;28;2007;-54
2022/08/14 03:26:58;;;;;;;;;;;;;;;23.87;40.38;95249.50;10337324;28;1935;-52
2022/08/14 03:31:59;;;;;;;;;;;;;;;23.87;40.52;95246.88;10338024;28;2000;-51
2022/08/14 03:36:59;;;;;;;;;;;;;;;23.86;40.60;95242.69;10336562;28;1832;-52
2022/08/14 03:42:00;;;;;;;;;;;;;;;23.86;40.49;95230.22;10340163;28;1986;-53
2022/08/14 03:47:00;;;;;;;;;;;;;;;23.86;40.67;95232.88;10344218;28;2125;-52
2022/08/14 03:52:04;;;;;;;;;;;;;;;23.85;40.39;95236.59;10346916;28;1985;-51
2022/08/14 03:57:04;;;;;;;;;;;;;;;23.86;40.41;95240.03;10339697;28;1929;-53
2022/08/14 04:02:05;;;;;;;;;;;;;;;23.85;40.69;95233.94;10341912;28;1978;-55
2022/08/14 04:07:05;;;;;;;;;;;;;;;23.86;40.79;95226.78;10341959;28;1868;-52
2022/08/14 04:12:06;;;;;;;;;;;;;;;23.86;40.66;95226.78;10337726;28;1939;-55
2022/08/14 04:17:12;;;;;;;;;;;;;;;23.85;40.52;95220.72;10362067;28;1991;-56
2022/08/14 04:22:12;;;;;;;;;;;;;;;23.85;40.66;95217.28;10340949;28;1977;-54
2022/08/14 04:27:13;;;;;;;;;;;;;;;23.83;40.47;95217.59;10339045;28;1924;-56
2022/08/14 04:32:14;;;;;;;;;;;;;;;23.83;40.40;95222.88;10336484;28;1975;-54
2022/08/14 04:53:26;;;;;;;;;;;;;;;23.83;40.64;95201.72;10326636;28;1931;-52
2022/08/14 04:58:27;;;;;;;;;;;;;;;23.83;40.57;95199.06;10341444;28;1973;-56
2022/08/14 05:03:28;;;;;;;;;;;;;;;23.83;40.31;95201.72;10338372;28;2092;-54
2022/08/14 05:08:29;;;;;;;;;;;;;;;23.85;40.74;95196.09;10346060;28;1971;-55
2022/08/14 05:13:30;;;;;;;;;;;;;;;23.85;40.46;95188.94;10337141;28;1942;-54
2022/08/14 05:18:31;;;;;;;;;;;;;;;23.86;40.36;95181.78;10345075;28;1955;-54
2022/08/14 05:23:32;;;;;;;;;;;;;;;23.85;40.42;95183.66;10339197;28;2116;-55
2022/08/14 05:28:33;;;;;;;;;;;;;;;23.84;40.35;95182.13;10336242;28;1963;-55
2022/08/14 05:33:33;;;;;;;;;;;;;;;23.85;40.37;95191.59;10337702;28;1966;-54
2022/08/14 05:38:35;;;;;;;;;;;;;;;23.86;40.36;95201.13;10341347;28;1968;-55
2022/08/14 05:43:36;;;;;;;;;;;;;;;23.86;40.66;95189.75;10339235;28;2399;-54
2022/08/14 05:48:36;;;;;;;;;;;;;;;23.86;40.52;95200.31;10338905;28;1887;-51
2022/08/14 05:53:36;;;;;;;;;;;;;;;23.87;40.94;95201.88;10335923;28;1905;-56
2022/08/14 05:58:37;;;;;;;;;;;;;;;23.86;40.62;95201.13;10337724;28;1887;-54
2022/08/14 06:03:37;;;;;;;;;;;;;;;23.84;40.54;95194.56;10337701;28;1919;-54
2022/08/14 06:08:37;;;;;;;;;;;;;;;23.85;40.43;95199.53;10335600;28;2168;-51
2022/08/14 06:13:38;;;;;;;;;;;;;;;23.83;40.52;95201.72;10336143;28;1956;-55
2022/08/14 06:18:40;;;;;;;;;;;;;;;23.86;40.78;95205.63;10337726;28;1975;-55
2022/08/14 06:23:40;;;;;;;;;;;;;;;23.87;40.45;95209.81;10337030;28;1933;-56
2022/08/14 06:28:41;;;;;;;;;;;;;;;23.87;40.65;95197.38;10336812;28;1888;-55
2022/08/14 06:33:41;;;;;;;;;;;;;;;23.87;40.65;95205.31;10337719;28;1833;-55
2022/08/14 06:38:41;;;;;;;;;;;;;;;23.88;40.77;95212.19;10342661;28;1915;-54
2022/08/14 06:43:42;;;;;;;;;;;;;;;23.87;40.79;95197.38;10348841;28;2000;-53
2022/08/14 06:48:42;;;;;;;;;;;;;;;23.87;40.56;95192.06;10345491;28;1947;-55
2022/08/14 06:53:42;;;;;;;;;;;;;;;23.88;40.96;95195.50;10346500;28;2050;-55
2022/08/14 06:58:43;;;;;;;;;;;;;;;23.88;40.82;95198.16;10345853;28;1971;-54
2022/08/14 07:09:03;;;;;;;;;;;;;;;23.88;40.78;95188.34;10342842;28;1903;-56
2022/08/14 07:14:04;;;;;;;;;;;;;;;23.88;40.82;95172.47;10343252;28;2136;-56
2022/08/14 07:19:07;;;;;;;;;;;;;;;23.87;41.04;95176.19;10348127;28;1875;-54
2022/08/14 07:24:08;;;;;;;;;;;;;;;23.86;41.01;95158.75;10342156;28;1937;-56
2022/08/14 07:29:11;;;;;;;;;;;;;;;23.86;40.94;95163.28;10341706;28;2046;-56
2022/08/14 07:34:13;;;;;;;;;;;;;;;23.86;41.17;95148.19;10343801;28;1999;-56
2022/08/14 07:39:14;;;;;;;;;;;;;;;23.87;41.25;95144.44;10343032;28;1921;-56
2022/08/14 07:44:19;;;;;;;;;;;;;;;23.87;41.10;95133.84;10339941;28;2194;-53
2022/08/14 07:49:20;;;;;;;;;;;;;;;23.87;41.00;95133.84;10341633;28;1973;-55
2022/08/14 07:54:21;;;;;;;;;;;;;;;23.88;40.86;95124.81;10339884;28;1970;-53
2022/08/14 07:59:23;;;;;;;;;;;;;;;23.87;40.92;95123.25;10341245;28;1987;-54
2022/08/14 08:04:24;;;;;;;;;;;;;;;23.88;41.25;95114.25;10340867;28;1978;-56
2022/08/14 08:09:25;;;;;;;;;;;;;;;23.89;41.05;95121.06;10338410;28;1919;-51
2022/08/14 08:14:26;;;;;;;;;;;;;;;23.89;40.84;95122.94;10359120;28;1885;-54
2022/08/14 08:19:27;;;;;;;;;;;;;;;23.90;40.95;95120.00;10309529;28;2018;-53
2022/08/14 08:24:28;;;;;;;;;;;;;;;23.90;41.04;95117.34;10337000;28;1895;-55
2022/08/14 08:29:28;;;;;;;;;;;;;;;23.89;40.97;95121.06;10355128;28;1994;-55
2022/08/14 08:34:29;;;;;;;;;;;;;;;23.90;40.85;95122.66;10338779;28;1932;-55
2022/08/14 08:39:29;;;;;;;;;;;;;;;23.92;41.12;95130.28;10343002;28;1959;-55
2022/08/14 08:44:32;;;;;;;;;;;;;;;23.92;40.93;95120.47;10346070;28;1969;-53
2022/08/14 08:49:41;;;;;;;;;;;;;;;23.91;40.96;95118.91;10340935;28;2012;-51
2022/08/14 08:54:52;;;;;;;;;;;;;;;23.92;40.89;95117.81;10335147;28;1904;-56
2022/08/14 08:59:52;;;;;;;;;;;;;;;23.93;40.87;95111.44;10338351;28;2030;-56
2022/08/14 09:04:59;;;;;;;;;;;;;;;23.93;40.93;95111.44;10337041;28;2024;-55
2022/08/14 09:09:59;;;;;;;;;;;;;;;23.94;40.72;95105.06;10335034;28;2000;-53
2022/08/14 09:15:01;;;;;;;;;;;;;;;23.95;41.01;95109.25;10343231;28;1943;-53
2022/08/14 09:20:03;;;;;;;;;;;;;;;23.94;41.04;95113.00;10340090;28;2006;-55
2022/08/14 09:25:04;;;;;;;;;;;;;;;23.96;41.04;95087.00;10334799;28;2304;-53
2022/08/14 09:30:06;;;;;;;;;;;;;;;23.95;40.83;95088.06;10338710;28;1871;-56
2022/08/14 09:35:25;;;;;;;;;;;;;;;23.95;41.15;95098.66;10338891;28;1963;-53
2022/08/14 09:40:38;;;;;;;;;;;;;;;23.96;40.77;95094.94;10340817;28;1943;-53
2022/08/14 09:45:43;;;;;;;;;;;;;;;23.97;40.81;95096.47;10360815;28;2047;-55
2022/08/14 09:50:45;;;;;;;;;;;;;;;23.98;40.66;95089.31;10330980;28;1973;-54
2022/08/14 09:55:57;;;;;;;;;;;;;;;23.99;40.74;95090.88;10334526;28;1901;-56
2022/08/14 10:00:59;;;;;;;;;;;;;;;23.99;40.73;95083.72;10345807;28;1896;-56
2022/08/14 10:06:03;;;;;;;;;;;;;;;24.01;40.88;95076.22;10336558;28;1944;-56
2022/08/14 10:11:16;;;;;;;;;;;;;;;24.01;40.90;95078.88;10343304;28;1922;-55
2022/08/14 10:16:17;;;;;;;;;;;;;;;24.02;40.88;95067.22;10344090;28;2057;-54
2022/08/14 10:21:17;;;;;;;;;;;;;;;24.01;40.86;95060.34;10346763;28;1959;-56
2022/08/14 10:26:18;;;;;;;;;;;;;;;24.03;40.83;95068.78;10350476;28;1933;-53
2022/08/14 10:31:19;;;;;;;;;;;;;;;24.05;40.86;95060.56;10346797;28;2012;-55
2022/08/14 10:36:26;;;;;;;;;;;;;;;24.05;40.97;95048.06;10343221;28;1927;-53
2022/08/14 10:41:39;;;;;;;;;;;;;;;24.06;40.84;95043.56;10343981;28;1896;-54
2022/08/14 10:46:40;;;;;;;;;;;;;;;24.07;40.94;95042.50;10348692;28;1950;-56
2022/08/14 10:51:40;;;;;;;;;;;;;;;24.07;40.89;95035.31;10346403;28;1911;-53
2022/08/14 10:56:40;;;;;;;;;;;;;;;24.07;41.01;95027.34;10370692;28;1858;-54
2022/08/14 11:01:41;;;;;;;;;;;;;;;24.08;40.94;95014.91;10345569;28;1910;-50
2022/08/14 11:06:50;;;;;;;;;;;;;;;24.09;40.98;95001.34;10342235;28;1949;-54
2022/08/14 11:11:53;;;;;;;;;;;;;;;24.10;41.08;95010.88;10341780;28;1900;-55
2022/08/14 11:16:53;;;;;;;;;;;;;;;24.10;40.89;95004.78;10345280;28;1999;-53
2022/08/14 11:21:55;;;;;;;;;;;;;;;24.11;40.93;94993.88;10355923;28;1948;-55
2022/08/14 11:26:55;;;;;;;;;;;;;;;24.11;41.21;94985.94;10344876;28;2105;-53
2022/08/14 11:31:56;;;;;;;;;;;;;;;24.11;41.27;94975.34;10322043;28;1957;-51
2022/08/14 11:36:56;;;;;;;;;;;;;;;24.12;40.98;94968.97;10329177;28;1876;-53
2022/08/14 11:41:59;;;;;;;;;;;;;;;24.13;41.13;94956.50;10336845;28;2362;-55
2022/08/14 11:47:00;;;;;;;;;;;;;;;24.12;41.14;94953.06;10339884;28;1933;-55
2022/08/14 11:52:01;;;;;;;;;;;;;;;24.14;41.21;94936.88;10340736;28;2034;-55
2022/08/14 11:57:01;;;;;;;;;;;;;;;24.15;41.09;94946.38;10342287;28;1923;-53
2022/08/14 12:02:12;;;;;;;;;;;;;;;24.14;41.10;94950.88;10339713;28;2029;-53
2022/08/14 12:07:12;;;;;;;;;;;;;;;24.16;41.26;94945.28;10340259;28;1921;-54
2022/08/14 12:12:12;;;;;;;;;;;;;;;24.15;41.15;94933.91;10338282;28;1935;-55
2022/08/14 12:17:13;;;;;;;;;;;;;;;24.15;41.27;94933.91;10343670;28;1971;-55
2022/08/14 12:22:14;;;;;;;;;;;;;;;24.15;41.34;94927.84;10344777;28;2045;-53
2022/08/14 12:27:15;;;;;;;;;;;;;;;24.17;41.22;94915.06;10346908;28;1888;-53
2022/08/14 12:32:16;;;;;;;;;;;;;;;24.17;41.24;94913.16;10339404;28;2004;-55
2022/08/14 12:37:16;;;;;;;;;;;;;;;24.18;41.55;94914.75;10337518;28;2054;-56
2022/08/14 12:42:16;;;;;;;;;;;;;;;24.19;41.39;94913.63;10338614;28;1969;-54
2022/08/14 12:47:19;;;;;;;;;;;;;;;24.19;41.18;94908.34;10326687;28;1951;-52
2022/08/14 12:52:30;;;;;;;;;;;;;;;24.19;41.28;94900.41;10335080;28;1921;-55
2022/08/14 12:57:43;;;;;;;;;;;;;;;24.18;41.50;94898.84;10335467;28;1911;-55
2022/08/14 13:02:44;;;;;;;;;;;;;;;24.20;41.28;94882.63;10341605;28;2051;-54
2022/08/14 13:07:44;;;;;;;;;;;;;;;24.20;41.24;94880.78;10338463;28;2035;-54
2022/08/14 13:12:45;;;;;;;;;;;;;;;24.21;41.31;94868.31;10340087;28;1963;-53
2022/08/14 13:17:49;;;;;;;;;;;;;;;24.21;41.25;94863.78;10335838;28;1975;-56
2022/08/14 13:22:49;;;;;;;;;;;;;;;24.22;41.27;94868.00;10339547;28;1973;-53
2022/08/14 13:27:51;;;;;;;;;;;;;;;24.22;41.60;94861.91;10345497;28;1877;-54
2022/08/14 13:32:52;;;;;;;;;;;;;;;24.21;41.36;94861.13;10339451;28;2019;-52
2022/08/14 13:37:52;;;;;;;;;;;;;;;24.21;41.40;94842.59;10342869;28;1951;-55
2022/08/14 13:42:54;;;;;;;;;;;;;;;24.23;41.43;94839.66;10335719;28;1946;-55
2022/08/14 13:47:57;;;;;;;;;;;;;;;24.23;41.66;94835.09;10342925;28;1927;-55
2022/08/14 13:52:59;;;;;;;;;;;;;;;24.23;41.53;94824.50;10341891;28;2018;-54
2022/08/14 13:58:00;;;;;;;;;;;;;;;24.24;41.46;94822.66;10346822;28;1900;-52
2022/08/14 14:03:01;;;;;;;;;;;;;;;24.24;41.58;94815.50;10349627;28;1914;-54
2022/08/14 14:08:03;;;;;;;;;;;;;;;24.24;41.47;94804.13;10347556;28;2113;-55
2022/08/14 14:13:04;;;;;;;;;;;;;;;24.24;41.42;94812.06;10350870;28;1904;-54
2022/08/14 14:18:05;;;;;;;;;;;;;;;24.23;41.41;94807.88;10345634;28;1916;-53
2022/08/14 14:23:09;;;;;;;;;;;;;;;24.25;41.72;94800.38;10345991;28;1977;-52
2022/08/14 14:28:09;;;;;;;;;;;;;;;24.24;41.61;94799.59;10345354;28;1967;-53
2022/08/14 14:33:10;;;;;;;;;;;;;;;24.25;41.74;94790.53;10352795;28;1914;-55
2022/08/14 14:38:14;;;;;;;;;;;;;;;24.25;41.87;94795.84;10346154;28;1915;-53
2022/08/14 14:43:14;;;;;;;;;;;;;;;24.26;41.52;94791.31;10341321;28;1971;-54
2022/08/14 14:48:15;;;;;;;;;;;;;;;24.25;41.60;94795.84;10343198;28;1852;-54
2022/08/14 14:53:16;;;;;;;;;;;;;;;24.27;41.67;94784.16;10342360;28;1902;-53
2022/08/14 14:58:17;;;;;;;;;;;;;;;24.27;41.57;94766.41;10327934;28;1953;-53
2022/08/14 15:03:17;;;;;;;;;;;;;;;24.28;41.83;94767.19;10330299;28;1910;-53
2022/08/14 15:08:18;;;;;;;;;;;;;;;24.27;41.55;94768.28;10364202;28;1943;-54
2022/08/14 15:13:18;;;;;;;;;;;;;;;24.27;41.58;94766.41;10346170;28;1997;-52
2022/08/14 15:18:20;;;;;;;;;;;;;;;24.28;41.79;94756.59;10345009;28;1929;-53
2022/08/14 15:23:21;;;;;;;;;;;;;;;24.27;41.64;94750.53;10345790;28;1992;-57
2022/08/14 15:28:22;;;;;;;;;;;;;;;24.28;41.50;94751.31;10347070;28;1929;-53
2022/08/14 15:38:41;;;;;;;;;;;;;;;24.29;41.58;94752.84;10348202;28;2032;-55
2022/08/14 15:43:41;;;;;;;;;;;;;;;24.29;41.65;94739.59;10340327;28;2027;-54
2022/08/14 15:48:42;;;;;;;;;;;;;;;24.28;41.63;94736.16;10344155;28;1889;-55
2022/08/14 15:53:43;;;;;;;;;;;;;;;24.28;41.66;94736.16;10345662;28;1951;-53
2022/08/14 15:58:44;;;;;;;;;;;;;;;24.27;41.44;94733.84;10324277;28;1960;-56
2022/08/14 16:03:46;;;;;;;;;;;;;;;24.29;41.68;94732.44;10345234;28;1946;-51
2022/08/14 16:08:50;;;;;;;;;;;;;;;24.27;41.79;94731.19;10343871;28;1982;-55
2022/08/14 16:13:50;;;;;;;;;;;;;;;24.28;41.59;94722.94;10337717;28;1845;-54
2022/08/14 16:18:51;;;;;;;;;;;;;;;24.28;41.69;94724.81;10342185;28;1954;-53
2022/08/14 16:23:51;;;;;;;;;;;;;;;24.28;41.57;94719.53;10344125;28;1912;-52
2022/08/14 16:28:53;;;;;;;;;;;;;;;24.29;41.70;94715.75;10345207;28;1967;-54
2022/08/14 16:33:54;;;;;;;;;;;;;;;24.29;41.81;94715.75;10341968;28;1937;-54
2022/08/14 16:38:55;;;;;;;;;;;;;;;24.28;41.52;94714.97;10346148;28;1991;-54
2022/08/14 16:44:00;;;;;;;;;;;;;;;24.29;41.47;94726.34;10343857;28;2018;-55
2022/08/14 16:49:01;;;;;;;;;;;;;;;24.28;41.67;94720.28;10336381;28;1968;-55
2022/08/14 16:54:02;;;;;;;;;;;;;;;24.28;41.61;94717.63;10341657;28;2273;-54
2022/08/14 16:59:06;;;;;;;;;;;;;;;24.28;41.67;94709.69;10339991;28;1872;-54
2022/08/14 17:04:08;;;;;;;;;;;;;;;24.28;41.58;94709.69;10344151;28;1992;-55
2022/08/14 17:09:22;;;;;;;;;;;;;;;24.29;41.53;94713.13;10342268;28;1948;-54
2022/08/14 17:14:23;;;;;;;;;;;;;;;24.28;41.74;94711.56;10336233;28;2098;-54
2022/08/14 17:19:23;;;;;;;;;;;;;;;24.28;41.45;94717.63;10342134;28;1931;-57
2022/08/14 17:24:24;;;;;;;;;;;;;;;24.28;41.80;94714.22;10336046;28;1971;-55
2022/08/14 17:29:25;;;;;;;;;;;;;;;24.29;41.77;94723.72;10333955;28;2015;-55
2022/08/14 17:34:43;;;;;;;;;;;;;;;24.29;41.49;94721.06;10341131;28;1909;-55
2022/08/14 17:39:43;;;;;;;;;;;;;;;24.29;41.92;94715.75;10339838;28;1983;-56
2022/08/14 17:44:44;;;;;;;;;;;;;;;24.28;41.84;94717.63;10337644;28;1996;-56
2022/08/14 17:49:46;;;;;;;;;;;;;;;24.28;41.86;94724.81;10336793;28;1982;-55
2022/08/14 17:54:48;;;;;;;;;;;;;;;24.28;41.75;94730.88;10337023;28;1976;-54
2022/08/14 17:59:49;;;;;;;;;;;;;;;24.29;41.72;94731.66;10338630;28;1916;-56
2022/08/14 18:04:49;;;;;;;;;;;;;;;24.28;41.61;94722.19;10337083;28;1960;-53
2022/08/14 18:09:53;;;;;;;;;;;;;;;24.29;41.66;94723.72;10318213;28;2083;-51
2022/08/14 18:14:54;;;;;;;;;;;;;;;24.28;41.87;94722.94;10335416;28;1979;-55
2022/08/14 18:19:55;;;;;;;;;;;;;;;24.29;41.52;94723.72;10333700;28;1980;-55
2022/08/14 18:24:55;;;;;;;;;;;;;;;24.29;41.82;94726.34;10321932;28;1955;-54
2022/08/14 18:29:57;;;;;;;;;;;;;;;24.29;41.56;94742.25;10338518;28;1912;-60
2022/08/14 18:34:57;;;;;;;;;;;;;;;24.27;41.79;94736.50;10362284;28;1939;-55
2022/08/14 18:40:31;;;;;;;;;;;;;;;24.27;41.66;94736.50;10347812;28;1933;-55
2022/08/14 18:45:33;;;;;;;;;;;;;;;24.28;41.85;94744.13;10317643;28;1980;-55
2022/08/14 18:50:45;;;;;;;;;;;;;;;24.28;41.65;94753.94;10343120;28;1915;-54
2022/08/14 18:55:50;;;;;;;;;;;;;;;24.28;41.95;94761.91;10341267;28;1959;-57
2022/08/14 19:00:51;;;;;;;;;;;;;;;24.28;41.68;94765.31;10344545;28;1855;-56
2022/08/14 19:05:51;;;;;;;;;;;;;;;24.29;41.71;94768.72;10344562;28;2030;-57
2022/08/14 19:10:53;;;;;;;;;;;;;;;24.29;41.56;94769.50;10341413;28;1950;-57
2022/08/14 19:16:12;;;;;;;;;;;;;;;24.28;41.91;94769.84;10340019;28;1955;-55
2022/08/14 19:21:23;;;;;;;;;;;;;;;24.29;41.87;94774.03;10336461;28;2046;-55
2022/08/14 19:26:24;;;;;;;;;;;;;;;24.29;41.87;94774.03;10348357;28;2029;-53
2022/08/14 19:31:27;;;;;;;;;;;;;;;24.29;41.90;94774.81;10344402;28;1971;-53
2022/08/14 19:36:40;;;;;;;;;;;;;;;24.29;41.63;94771.38;10340990;28;1945;-54
2022/08/14 19:41:40;;;;;;;;;;;;;;;24.29;41.60;94768.72;10341830;28;1928;-56
2022/08/14 19:46:42;;;;;;;;;;;;;;;24.29;41.59;94769.50;10340425;28;1947;-53
2022/08/14 19:51:44;;;;;;;;;;;;;;;24.29;41.68;94780.09;10338817;28;1979;-55
2022/08/14 19:56:44;;;;;;;;;;;;;;;24.29;41.49;94784.63;10339721;28;2003;-56
2022/08/14 20:01:48;;;;;;;;;;;;;;;24.29;41.73;94788.06;10336167;28;1656;-55
2022/08/14 20:06:48;;;;;;;;;;;;;;;24.30;41.79;94778.25;10341504;28;1962;-56
2022/08/14 20:11:49;;;;;;;;;;;;;;;24.30;41.72;94786.19;10338675;28;1898;-55
2022/08/14 20:16:51;;;;;;;;;;;;;;;24.31;41.75;94780.56;10339778;28;2016;-54
2022/08/14 20:21:52;;;;;;;;;;;;;;;24.30;41.87;94783.53;10342519;28;2011;-55
2022/08/14 20:27:11;;;;;;;;;;;;;;;24.30;41.77;94789.59;10338669;28;1977;-56
2022/08/14 20:32:15;;;;;;;;;;;;;;;24.31;41.65;94793.81;10340455;28;2210;-56
2022/08/14 20:37:16;;;;;;;;;;;;;;;24.31;41.60;94796.47;10332605;28;1960;-57
2022/08/14 20:47:46;;;;;;;;;;;;;;;24.32;41.45;94794.59;10337455;28;1991;-57
2022/08/14 20:52:47;;;;;;;;;;;;;;;24.32;41.66;94799.88;10348445;28;1873;-56
2022/08/14 20:57:47;;;;;;;;;;;;;;;24.32;41.55;94797.25;10341394;28;1931;-54
2022/08/14 21:02:48;;;;;;;;;;;;;;;24.32;41.76;94798.00;10338450;28;1962;-56
2022/08/14 21:07:48;;;;;;;;;;;;;;;24.33;41.80;94806.72;10337410;28;1935;-56
2022/08/14 21:12:48;;;;;;;;;;;;;;;24.33;41.63;94806.72;10335282;28;1841;-57
2022/08/14 21:17:49;;;;;;;;;;;;;;;24.33;41.68;94809.38;10339042;28;1959;-57
2022/08/14 21:22:49;;;;;;;;;;;;;;;24.33;41.43;94812.03;10335333;28;2092;-56
2022/08/14 21:27:49;;;;;;;;;;;;;;;24.33;41.76;94823.41;10335513;28;1912;-53
2022/08/14 21:32:50;;;;;;;;;;;;;;;24.32;41.72;94824.47;10336870;28;2026;-56
2022/08/14 21:37:51;;;;;;;;;;;;;;;24.34;41.56;94816.22;10335076;28;1983;-55
2022/08/14 21:42:52;;;;;;;;;;;;;;;24.33;41.51;94814.66;10338333;28;1887;-55
2022/08/14 21:47:55;;;;;;;;;;;;;;;24.33;41.76;94804.84;10331750;28;1975;-57
2022/08/14 21:52:56;;;;;;;;;;;;;;;24.33;41.80;94817.31;10335643;28;2030;-56
2022/08/14 21:57:57;;;;;;;;;;;;;;;24.33;41.58;94806.72;10317963;28;1912;-56
2022/08/14 22:02:57;;;;;;;;;;;;;;;24.33;41.78;94804.84;10318121;28;2086;-55
2022/08/14 22:07:57;;;;;;;;;;;;;;;24.34;41.74;94816.22;10330164;28;1885;-56
2022/08/14 22:12:58;;;;;;;;;;;;;;;24.33;41.51;94817.31;10330007;28;1802;-57
2022/08/14 22:17:58;;;;;;;;;;;;;;;24.34;41.75;94824.19;10341766;28;1781;-57
2022/08/14 22:23:03;;;;;;;;;;;;;;;24.33;41.50;94828.69;10324965;28;2004;-55
2022/08/14 22:28:04;;;;;;;;;;;;;;;24.34;41.88;94824.19;10344491;28;2018;-55
2022/08/14 22:33:05;;;;;;;;;;;;;;;24.35;41.65;94825.72;10345322;28;1975;-53
2022/08/14 22:38:05;;;;;;;;;;;;;;;24.34;41.46;94830.22;10345416;28;1911;-55
2022/08/14 22:43:07;;;;;;;;;;;;;;;24.35;41.75;94825.72;10342351;28;2045;-56
2022/08/14 22:48:08;;;;;;;;;;;;;;;24.35;41.64;94809.81;10342342;28;1888;-55
2022/08/14 22:53:08;;;;;;;;;;;;;;;24.35;41.79;94812.47;10343169;28;2024;-54
2022/08/14 22:58:09;;;;;;;;;;;;;;;24.35;41.89;94799.22;10323732;28;1927;-54
2022/08/14 23:03:11;;;;;;;;;;;;;;;24.36;41.66;94798.16;10342664;28;1981;-53
2022/08/14 23:08:31;;;;;;;;;;;;;;;24.36;41.62;94801.56;10344183;28;1939;-56
2022/08/14 23:13:32;;;;;;;;;;;;;;;24.36;41.68;94803.44;10346326;28;1982;-55
2022/08/14 23:18:33;;;;;;;;;;;;;;;24.36;41.85;94800.81;10345196;28;1967;-53
2022/08/14 23:23:33;;;;;;;;;;;;;;;24.36;41.75;94795.50;10344091;28;1924;-55
2022/08/14 23:28:38;;;;;;;;;;;;;;;24.35;41.81;94799.22;10341834;28;1977;-55
2022/08/14 23:33:39;;;;;;;;;;;;;;;24.37;41.77;94797.03;10322300;28;2034;-55
2022/08/14 23:38:39;;;;;;;;;;;;;;;24.36;41.63;94790.22;10341723;28;1961;-54
2022/08/14 23:43:42;;;;;;;;;;;;;;;24.37;41.69;94791.75;10342957;28;1959;-56
2022/08/14 23:48:43;;;;;;;;;;;;;;;24.37;41.58;94787.22;10341314;28;1994;-55
2022/08/14 23:53:45;;;;;;;;;;;;;;;24.38;41.66;94780.06;10341680;28;1945;-55
2022/08/14 23:58:45;;;;;;;;;;;;;;;24.37;41.69;94771.34;10342086;28;1927;-56
